sensor_id;sensor_type;location;lat;lon;timestamp;P1;durP1;ratioP1;P2;durP2;ratioP2
61017;SDS011;48171;51.550;5.434;2023-06-14T00:00:30;15.55;;;9.27;;
61017;SDS011;48171;51.550;5.434;2023-06-14T00:02:56;14.02;;;9.18;;
61017;SDS011;48171;51.550;5.434;2023-06-14T00:05:21;17.90;;;9.13;;
61017;SDS011;48171;51.550;5.434;2023-06-14T00:07:48;14.98;;;9.52;;
61017;SDS011;48171;51.550;5.434;2023-06-14T00:10:14;15.95;;;9.38;;
61017;SDS011;48171;51.550;5.434;2023-06-14T00:12:40;17.88;;;8.60;;
61017;SDS011;48171;51.550;5.434;2023-06-14T00:15:06;14.77;;;8.93;;
61017;SDS011;48171;51.550;5.434;2023-06-14T00:17:34;12.88;;;8.57;;
61017;SDS011;48171;51.550;5.434;2023-06-14T00:20:01;13.27;;;8.60;;
61017;SDS011;48171;51.550;5.434;2023-06-14T00:22:30;17.60;;;8.43;;
61017;SDS011;48171;51.550;5.434;2023-06-14T00:24:56;15.80;;;8.38;;
61017;SDS011;48171;51.550;5.434;2023-06-14T00:27:22;14.75;;;8.88;;
61017;SDS011;48171;51.550;5.434;2023-06-14T00:29:47;14.63;;;8.55;;
61017;SDS011;48171;51.550;5.434;2023-06-14T00:32:12;14.60;;;8.48;;
61017;SDS011;48171;51.550;5.434;2023-06-14T00:34:38;14.93;;;8.45;;
61017;SDS011;48171;51.550;5.434;2023-06-14T00:37:03;15.90;;;8.52;;
61017;SDS011;48171;51.550;5.434;2023-06-14T00:39:29;14.10;;;8.05;;
61017;SDS011;48171;51.550;5.434;2023-06-14T00:41:54;13.85;;;7.97;;
61017;SDS011;48171;51.550;5.434;2023-06-14T00:44:19;15.13;;;7.75;;
61017;SDS011;48171;51.550;5.434;2023-06-14T00:46:46;12.82;;;7.80;;
61017;SDS011;48171;51.550;5.434;2023-06-14T00:49:12;15.00;;;7.15;;
61017;SDS011;48171;51.550;5.434;2023-06-14T00:51:40;12.13;;;6.90;;
61017;SDS011;48171;51.550;5.434;2023-06-14T01:03:26;11.07;;;6.97;;
61017;SDS011;48171;51.550;5.434;2023-06-14T01:05:55;14.60;;;6.82;;
61017;SDS011;48171;51.550;5.434;2023-06-14T01:08:55;11.88;;;6.85;;
61017;SDS011;48171;51.550;5.434;2023-06-14T01:11:31;12.55;;;6.53;;
61017;SDS011;48171;51.550;5.434;2023-06-14T01:14:01;14.57;;;6.72;;
61017;SDS011;48171;51.550;5.434;2023-06-14T01:16:28;12.73;;;6.85;;
61017;SDS011;48171;51.550;5.434;2023-06-14T01:18:56;12.27;;;6.80;;
61017;SDS011;48171;51.550;5.434;2023-06-14T01:21:23;13.85;;;6.68;;
61017;SDS011;48171;51.550;5.434;2023-06-14T01:23:50;12.95;;;6.40;;
61017;SDS011;48171;51.550;5.434;2023-06-14T01:26:20;15.35;;;6.80;;
61017;SDS011;48171;51.550;5.434;2023-06-14T01:28:46;9.40;;;5.90;;
61017;SDS011;48171;51.550;5.434;2023-06-14T01:31:16;11.55;;;6.10;;
61017;SDS011;48171;51.550;5.434;2023-06-14T01:33:44;11.02;;;6.78;;
61017;SDS011;48171;51.550;5.434;2023-06-14T01:36:10;11.18;;;6.85;;
61017;SDS011;48171;51.550;5.434;2023-06-14T01:38:37;12.85;;;6.22;;
61017;SDS011;48171;51.550;5.434;2023-06-14T01:41:03;13.73;;;6.20;;
61017;SDS011;48171;51.550;5.434;2023-06-14T01:43:29;12.13;;;6.40;;
61017;SDS011;48171;51.550;5.434;2023-06-14T01:45:56;11.88;;;5.95;;
61017;SDS011;48171;51.550;5.434;2023-06-14T01:48:22;12.65;;;6.00;;
61017;SDS011;48171;51.550;5.434;2023-06-14T01:50:48;12.07;;;5.85;;
61017;SDS011;48171;51.550;5.434;2023-06-14T01:53:14;10.40;;;5.80;;
61017;SDS011;48171;51.550;5.434;2023-06-14T01:55:40;10.02;;;5.75;;
61017;SDS011;48171;51.550;5.434;2023-06-14T01:58:09;11.25;;;6.00;;
61017;SDS011;48171;51.550;5.434;2023-06-14T02:00:35;11.63;;;5.82;;
61017;SDS011;48171;51.550;5.434;2023-06-14T02:03:00;11.93;;;6.03;;
61017;SDS011;48171;51.550;5.434;2023-06-14T02:05:26;11.80;;;6.20;;
61017;SDS011;48171;51.550;5.434;2023-06-14T02:07:51;9.93;;;6.07;;
61017;SDS011;48171;51.550;5.434;2023-06-14T02:10:18;11.65;;;6.10;;
61017;SDS011;48171;51.550;5.434;2023-06-14T02:12:44;10.30;;;5.60;;
61017;SDS011;48171;51.550;5.434;2023-06-14T02:15:09;10.68;;;5.70;;
61017;SDS011;48171;51.550;5.434;2023-06-14T02:17:41;9.63;;;5.75;;
61017;SDS011;48171;51.550;5.434;2023-06-14T02:20:07;11.75;;;5.80;;
61017;SDS011;48171;51.550;5.434;2023-06-14T02:22:33;10.73;;;6.25;;
61017;SDS011;48171;51.550;5.434;2023-06-14T02:24:58;16.65;;;6.65;;
61017;SDS011;48171;51.550;5.434;2023-06-14T02:27:23;12.45;;;6.18;;
61017;SDS011;48171;51.550;5.434;2023-06-14T02:29:49;11.85;;;5.68;;
61017;SDS011;48171;51.550;5.434;2023-06-14T02:32:14;12.05;;;6.43;;
61017;SDS011;48171;51.550;5.434;2023-06-14T02:34:39;11.35;;;5.88;;
61017;SDS011;48171;51.550;5.434;2023-06-14T02:37:06;12.68;;;6.03;;
61017;SDS011;48171;51.550;5.434;2023-06-14T02:39:31;11.55;;;6.15;;
61017;SDS011;48171;51.550;5.434;2023-06-14T02:41:57;9.95;;;5.95;;
61017;SDS011;48171;51.550;5.434;2023-06-14T02:44:25;11.73;;;6.13;;
61017;SDS011;48171;51.550;5.434;2023-06-14T02:46:52;17.35;;;5.85;;
61017;SDS011;48171;51.550;5.434;2023-06-14T02:49:18;13.30;;;6.30;;
61017;SDS011;48171;51.550;5.434;2023-06-14T02:51:44;13.10;;;5.93;;
61017;SDS011;48171;51.550;5.434;2023-06-14T02:54:09;12.23;;;6.55;;
61017;SDS011;48171;51.550;5.434;2023-06-14T02:56:35;11.73;;;5.93;;
61017;SDS011;48171;51.550;5.434;2023-06-14T02:59:00;12.73;;;5.97;;
61017;SDS011;48171;51.550;5.434;2023-06-14T03:01:26;9.98;;;6.18;;
61017;SDS011;48171;51.550;5.434;2023-06-14T03:04:02;10.18;;;5.80;;
61017;SDS011;48171;51.550;5.434;2023-06-14T03:06:30;11.63;;;6.10;;
61017;SDS011;48171;51.550;5.434;2023-06-14T03:08:56;11.00;;;5.72;;
61017;SDS011;48171;51.550;5.434;2023-06-14T03:11:25;10.77;;;5.97;;
61017;SDS011;48171;51.550;5.434;2023-06-14T03:13:51;12.52;;;6.43;;
61017;SDS011;48171;51.550;5.434;2023-06-14T03:16:17;9.73;;;5.53;;
61017;SDS011;48171;51.550;5.434;2023-06-14T03:18:44;9.10;;;5.68;;
61017;SDS011;48171;51.550;5.434;2023-06-14T03:21:10;15.32;;;5.55;;
61017;SDS011;48171;51.550;5.434;2023-06-14T03:23:36;10.25;;;6.03;;
61017;SDS011;48171;51.550;5.434;2023-06-14T03:26:01;11.85;;;6.07;;
61017;SDS011;48171;51.550;5.434;2023-06-14T03:28:27;13.52;;;5.68;;
61017;SDS011;48171;51.550;5.434;2023-06-14T03:30:52;14.45;;;5.82;;
61017;SDS011;48171;51.550;5.434;2023-06-14T03:33:17;9.07;;;5.40;;
61017;SDS011;48171;51.550;5.434;2023-06-14T03:35:43;9.75;;;5.88;;
61017;SDS011;48171;51.550;5.434;2023-06-14T03:38:08;11.70;;;5.57;;
61017;SDS011;48171;51.550;5.434;2023-06-14T03:40:33;11.02;;;6.32;;
61017;SDS011;48171;51.550;5.434;2023-06-14T03:42:59;9.93;;;5.50;;
61017;SDS011;48171;51.550;5.434;2023-06-14T03:48:00;16.05;;;5.40;;
61017;SDS011;48171;51.550;5.434;2023-06-14T03:50:25;10.25;;;5.55;;
61017;SDS011;48171;51.550;5.434;2023-06-14T03:52:52;11.63;;;5.43;;
61017;SDS011;48171;51.550;5.434;2023-06-14T03:55:17;12.95;;;5.90;;
61017;SDS011;48171;51.550;5.434;2023-06-14T03:57:42;11.30;;;6.18;;
61017;SDS011;48171;51.550;5.434;2023-06-14T04:00:09;11.77;;;5.80;;
61017;SDS011;48171;51.550;5.434;2023-06-14T04:02:34;13.10;;;6.15;;
61017;SDS011;48171;51.550;5.434;2023-06-14T04:05:01;9.02;;;5.63;;
61017;SDS011;48171;51.550;5.434;2023-06-14T04:07:27;11.02;;;6.15;;
61017;SDS011;48171;51.550;5.434;2023-06-14T04:09:53;13.05;;;5.65;;
61017;SDS011;48171;51.550;5.434;2023-06-14T04:12:18;11.32;;;6.10;;
61017;SDS011;48171;51.550;5.434;2023-06-14T04:14:44;14.25;;;5.75;;
61017;SDS011;48171;51.550;5.434;2023-06-14T04:17:09;10.63;;;6.10;;
61017;SDS011;48171;51.550;5.434;2023-06-14T04:19:35;11.18;;;5.88;;
61017;SDS011;48171;51.550;5.434;2023-06-14T04:22:00;14.25;;;5.75;;
61017;SDS011;48171;51.550;5.434;2023-06-14T04:24:27;12.98;;;5.47;;
61017;SDS011;48171;51.550;5.434;2023-06-14T04:26:56;10.43;;;6.20;;
61017;SDS011;48171;51.550;5.434;2023-06-14T04:29:23;11.82;;;5.40;;
61017;SDS011;48171;51.550;5.434;2023-06-14T04:31:49;11.75;;;5.82;;
61017;SDS011;48171;51.550;5.434;2023-06-14T04:34:14;12.15;;;5.63;;
61017;SDS011;48171;51.550;5.434;2023-06-14T04:36:42;11.30;;;5.90;;
61017;SDS011;48171;51.550;5.434;2023-06-14T04:39:21;13.23;;;6.18;;
61017;SDS011;48171;51.550;5.434;2023-06-14T04:41:47;8.88;;;5.78;;
61017;SDS011;48171;51.550;5.434;2023-06-14T04:44:12;12.48;;;5.75;;
61017;SDS011;48171;51.550;5.434;2023-06-14T04:46:38;13.13;;;5.95;;
61017;SDS011;48171;51.550;5.434;2023-06-14T04:49:13;16.20;;;5.97;;
61017;SDS011;48171;51.550;5.434;2023-06-14T04:51:40;11.85;;;6.20;;
61017;SDS011;48171;51.550;5.434;2023-06-14T04:54:22;10.45;;;5.88;;
61017;SDS011;48171;51.550;5.434;2023-06-14T04:56:49;9.80;;;6.20;;
61017;SDS011;48171;51.550;5.434;2023-06-14T04:59:15;11.75;;;6.13;;
61017;SDS011;48171;51.550;5.434;2023-06-14T05:01:42;10.82;;;5.90;;
61017;SDS011;48171;51.550;5.434;2023-06-14T05:04:12;13.68;;;6.30;;
61017;SDS011;48171;51.550;5.434;2023-06-14T05:06:37;14.77;;;6.38;;
61017;SDS011;48171;51.550;5.434;2023-06-14T05:09:03;10.82;;;5.88;;
61017;SDS011;48171;51.550;5.434;2023-06-14T05:11:28;12.38;;;6.43;;
61017;SDS011;48171;51.550;5.434;2023-06-14T05:13:53;11.65;;;6.60;;
61017;SDS011;48171;51.550;5.434;2023-06-14T05:16:19;12.82;;;7.30;;
61017;SDS011;48171;51.550;5.434;2023-06-14T05:18:45;13.07;;;6.32;;
61017;SDS011;48171;51.550;5.434;2023-06-14T05:21:12;14.93;;;7.18;;
61017;SDS011;48171;51.550;5.434;2023-06-14T05:23:37;18.13;;;6.95;;
61017;SDS011;48171;51.550;5.434;2023-06-14T05:26:03;11.05;;;6.50;;
61017;SDS011;48171;51.550;5.434;2023-06-14T05:28:29;9.68;;;6.63;;
61017;SDS011;48171;51.550;5.434;2023-06-14T05:30:55;11.60;;;6.55;;
61017;SDS011;48171;51.550;5.434;2023-06-14T05:33:21;16.83;;;7.35;;
61017;SDS011;48171;51.550;5.434;2023-06-14T05:35:46;11.00;;;6.38;;
61017;SDS011;48171;51.550;5.434;2023-06-14T05:38:11;13.15;;;6.68;;
61017;SDS011;48171;51.550;5.434;2023-06-14T05:40:37;12.45;;;6.95;;
61017;SDS011;48171;51.550;5.434;2023-06-14T05:43:02;13.98;;;7.10;;
61017;SDS011;48171;51.550;5.434;2023-06-14T05:45:27;12.20;;;6.60;;
61017;SDS011;48171;51.550;5.434;2023-06-14T05:47:53;12.95;;;6.93;;
61017;SDS011;48171;51.550;5.434;2023-06-14T05:50:19;14.20;;;7.13;;
61017;SDS011;48171;51.550;5.434;2023-06-14T05:52:45;15.50;;;7.25;;
61017;SDS011;48171;51.550;5.434;2023-06-14T05:55:10;17.92;;;7.32;;
61017;SDS011;48171;51.550;5.434;2023-06-14T05:57:37;13.93;;;6.82;;
61017;SDS011;48171;51.550;5.434;2023-06-14T06:00:02;13.48;;;7.57;;
61017;SDS011;48171;51.550;5.434;2023-06-14T06:02:35;12.95;;;7.40;;
61017;SDS011;48171;51.550;5.434;2023-06-14T06:05:01;11.18;;;7.15;;
61017;SDS011;48171;51.550;5.434;2023-06-14T06:07:29;11.90;;;7.60;;
61017;SDS011;48171;51.550;5.434;2023-06-14T06:09:55;14.20;;;7.05;;
61017;SDS011;48171;51.550;5.434;2023-06-14T06:12:20;14.02;;;6.80;;
61017;SDS011;48171;51.550;5.434;2023-06-14T06:14:45;12.05;;;6.80;;
61017;SDS011;48171;51.550;5.434;2023-06-14T06:17:11;23.45;;;7.53;;
61017;SDS011;48171;51.550;5.434;2023-06-14T06:19:36;9.52;;;6.40;;
61017;SDS011;48171;51.550;5.434;2023-06-14T06:22:01;13.65;;;6.53;;
61017;SDS011;48171;51.550;5.434;2023-06-14T06:24:27;11.85;;;5.90;;
61017;SDS011;48171;51.550;5.434;2023-06-14T06:26:52;13.02;;;7.05;;
61017;SDS011;48171;51.550;5.434;2023-06-14T06:29:17;13.75;;;6.82;;
61017;SDS011;48171;51.550;5.434;2023-06-14T06:31:42;18.73;;;7.05;;
61017;SDS011;48171;51.550;5.434;2023-06-14T06:34:08;12.40;;;7.07;;
61017;SDS011;48171;51.550;5.434;2023-06-14T06:36:33;11.75;;;6.70;;
61017;SDS011;48171;51.550;5.434;2023-06-14T06:38:58;12.23;;;6.78;;
61017;SDS011;48171;51.550;5.434;2023-06-14T06:41:23;14.68;;;7.05;;
61017;SDS011;48171;51.550;5.434;2023-06-14T06:43:49;10.18;;;6.18;;
61017;SDS011;48171;51.550;5.434;2023-06-14T06:46:14;14.45;;;6.43;;
61017;SDS011;48171;51.550;5.434;2023-06-14T06:48:39;12.60;;;6.75;;
61017;SDS011;48171;51.550;5.434;2023-06-14T06:51:05;12.57;;;6.55;;
61017;SDS011;48171;51.550;5.434;2023-06-14T06:53:30;17.50;;;6.97;;
61017;SDS011;48171;51.550;5.434;2023-06-14T06:55:56;13.80;;;6.60;;
61017;SDS011;48171;51.550;5.434;2023-06-14T06:58:21;17.25;;;6.68;;
61017;SDS011;48171;51.550;5.434;2023-06-14T07:00:47;16.05;;;6.00;;
61017;SDS011;48171;51.550;5.434;2023-06-14T07:03:12;12.88;;;5.95;;
61017;SDS011;48171;51.550;5.434;2023-06-14T07:05:37;16.35;;;6.05;;
61017;SDS011;48171;51.550;5.434;2023-06-14T07:08:03;10.43;;;5.85;;
61017;SDS011;48171;51.550;5.434;2023-06-14T07:10:28;13.85;;;6.38;;
61017;SDS011;48171;51.550;5.434;2023-06-14T07:12:54;14.30;;;6.85;;
61017;SDS011;48171;51.550;5.434;2023-06-14T07:15:19;13.18;;;6.50;;
61017;SDS011;48171;51.550;5.434;2023-06-14T07:17:45;15.45;;;6.22;;
61017;SDS011;48171;51.550;5.434;2023-06-14T07:20:10;11.40;;;5.82;;
61017;SDS011;48171;51.550;5.434;2023-06-14T07:22:39;9.20;;;5.60;;
61017;SDS011;48171;51.550;5.434;2023-06-14T07:25:10;14.52;;;6.07;;
61017;SDS011;48171;51.550;5.434;2023-06-14T07:27:42;10.18;;;5.93;;
61017;SDS011;48171;51.550;5.434;2023-06-14T07:30:13;10.55;;;5.78;;
61017;SDS011;48171;51.550;5.434;2023-06-14T07:32:38;13.52;;;6.05;;
61017;SDS011;48171;51.550;5.434;2023-06-14T07:35:04;12.23;;;6.20;;
61017;SDS011;48171;51.550;5.434;2023-06-14T07:37:30;12.43;;;5.80;;
61017;SDS011;48171;51.550;5.434;2023-06-14T07:39:56;15.43;;;6.32;;
61017;SDS011;48171;51.550;5.434;2023-06-14T07:42:21;13.40;;;6.40;;
61017;SDS011;48171;51.550;5.434;2023-06-14T07:44:46;13.98;;;6.57;;
61017;SDS011;48171;51.550;5.434;2023-06-14T07:47:11;10.43;;;5.97;;
61017;SDS011;48171;51.550;5.434;2023-06-14T07:49:37;8.85;;;5.63;;
61017;SDS011;48171;51.550;5.434;2023-06-14T07:52:02;11.68;;;5.85;;
61017;SDS011;48171;51.550;5.434;2023-06-14T07:54:28;15.55;;;5.88;;
61017;SDS011;48171;51.550;5.434;2023-06-14T07:56:54;12.95;;;6.03;;
61017;SDS011;48171;51.550;5.434;2023-06-14T07:59:21;12.43;;;5.65;;
61017;SDS011;48171;51.550;5.434;2023-06-14T08:01:46;13.90;;;6.07;;
61017;SDS011;48171;51.550;5.434;2023-06-14T08:04:16;11.75;;;5.35;;
61017;SDS011;48171;51.550;5.434;2023-06-14T08:06:41;14.13;;;5.75;;
61017;SDS011;48171;51.550;5.434;2023-06-14T08:09:09;11.00;;;5.72;;
61017;SDS011;48171;51.550;5.434;2023-06-14T08:11:35;12.50;;;5.60;;
61017;SDS011;48171;51.550;5.434;2023-06-14T08:14:00;10.80;;;5.53;;
61017;SDS011;48171;51.550;5.434;2023-06-14T08:16:26;9.93;;;4.97;;
61017;SDS011;48171;51.550;5.434;2023-06-14T08:18:51;12.98;;;5.30;;
61017;SDS011;48171;51.550;5.434;2023-06-14T08:21:16;11.68;;;5.20;;
61017;SDS011;48171;51.550;5.434;2023-06-14T08:23:43;9.68;;;5.00;;
61017;SDS011;48171;51.550;5.434;2023-06-14T08:26:08;9.10;;;4.80;;
61017;SDS011;48171;51.550;5.434;2023-06-14T08:28:34;7.18;;;4.88;;
61017;SDS011;48171;51.550;5.434;2023-06-14T08:30:59;9.07;;;4.45;;
61017;SDS011;48171;51.550;5.434;2023-06-14T08:33:25;11.00;;;4.88;;
61017;SDS011;48171;51.550;5.434;2023-06-14T08:38:48;11.75;;;4.72;;
61017;SDS011;48171;51.550;5.434;2023-06-14T08:41:13;11.95;;;5.38;;
61017;SDS011;48171;51.550;5.434;2023-06-14T08:43:47;10.77;;;4.65;;
61017;SDS011;48171;51.550;5.434;2023-06-14T08:46:12;7.78;;;5.05;;
61017;SDS011;48171;51.550;5.434;2023-06-14T08:48:41;11.67;;;4.73;;
61017;SDS011;48171;51.550;5.434;2023-06-14T08:51:08;10.88;;;4.78;;
61017;SDS011;48171;51.550;5.434;2023-06-14T08:53:35;9.85;;;4.70;;
61017;SDS011;48171;51.550;5.434;2023-06-14T08:56:06;8.45;;;4.47;;
61017;SDS011;48171;51.550;5.434;2023-06-14T08:58:38;11.70;;;4.97;;
61017;SDS011;48171;51.550;5.434;2023-06-14T09:01:08;11.25;;;4.30;;
61017;SDS011;48171;51.550;5.434;2023-06-14T09:03:37;10.55;;;4.10;;
61017;SDS011;48171;51.550;5.434;2023-06-14T09:06:05;8.00;;;3.97;;
61017;SDS011;48171;51.550;5.434;2023-06-14T09:08:33;12.68;;;3.83;;
61017;SDS011;48171;51.550;5.434;2023-06-14T09:11:00;9.25;;;3.72;;
61017;SDS011;48171;51.550;5.434;2023-06-14T09:13:26;7.57;;;3.50;;
61017;SDS011;48171;51.550;5.434;2023-06-14T09:15:52;7.45;;;3.10;;
61017;SDS011;48171;51.550;5.434;2023-06-14T09:18:17;6.78;;;3.05;;
61017;SDS011;48171;51.550;5.434;2023-06-14T09:20:45;9.23;;;3.55;;
61017;SDS011;48171;51.550;5.434;2023-06-14T09:23:12;8.20;;;3.38;;
61017;SDS011;48171;51.550;5.434;2023-06-14T09:25:41;5.93;;;3.15;;
61017;SDS011;48171;51.550;5.434;2023-06-14T09:28:08;5.20;;;2.38;;
61017;SDS011;48171;51.550;5.434;2023-06-14T09:30:38;5.90;;;2.45;;
61017;SDS011;48171;51.550;5.434;2023-06-14T09:33:04;6.27;;;2.30;;
61017;SDS011;48171;51.550;5.434;2023-06-14T09:35:31;6.03;;;2.05;;
61017;SDS011;48171;51.550;5.434;2023-06-14T09:37:57;6.00;;;2.08;;
61017;SDS011;48171;51.550;5.434;2023-06-14T09:40:22;4.32;;;2.10;;
61017;SDS011;48171;51.550;5.434;2023-06-14T09:42:48;4.15;;;1.90;;
61017;SDS011;48171;51.550;5.434;2023-06-14T09:45:15;5.07;;;1.75;;
61017;SDS011;48171;51.550;5.434;2023-06-14T09:47:44;4.40;;;1.90;;
61017;SDS011;48171;51.550;5.434;2023-06-14T09:50:11;4.50;;;2.20;;
61017;SDS011;48171;51.550;5.434;2023-06-14T09:52:36;5.80;;;2.05;;
61017;SDS011;48171;51.550;5.434;2023-06-14T09:55:02;5.20;;;2.10;;
61017;SDS011;48171;51.550;5.434;2023-06-14T10:00:14;5.68;;;1.95;;
61017;SDS011;48171;51.550;5.434;2023-06-14T10:02:49;3.75;;;2.08;;
61017;SDS011;48171;51.550;5.434;2023-06-14T10:05:24;4.82;;;2.00;;
61017;SDS011;48171;51.550;5.434;2023-06-14T10:07:56;3.50;;;1.95;;
61017;SDS011;48171;51.550;5.434;2023-06-14T10:10:26;5.18;;;2.20;;
61017;SDS011;48171;51.550;5.434;2023-06-14T10:12:52;6.60;;;2.30;;
61017;SDS011;48171;51.550;5.434;2023-06-14T10:15:32;5.47;;;2.15;;
61017;SDS011;48171;51.550;5.434;2023-06-14T10:18:01;4.47;;;2.28;;
61017;SDS011;48171;51.550;5.434;2023-06-14T10:20:41;5.50;;;2.38;;
61017;SDS011;48171;51.550;5.434;2023-06-14T10:23:18;3.83;;;2.33;;
61017;SDS011;48171;51.550;5.434;2023-06-14T10:25:49;5.72;;;2.58;;
61017;SDS011;48171;51.550;5.434;2023-06-14T10:33:50;6.55;;;2.80;;
61017;SDS011;48171;51.550;5.434;2023-06-14T10:36:30;3.92;;;2.60;;
61017;SDS011;48171;51.550;5.434;2023-06-14T10:39:04;9.52;;;2.72;;
61017;SDS011;48171;51.550;5.434;2023-06-14T10:41:36;6.43;;;2.72;;
61017;SDS011;48171;51.550;5.434;2023-06-14T10:44:10;5.00;;;2.70;;
61017;SDS011;48171;51.550;5.434;2023-06-14T10:46:35;5.63;;;2.90;;
61017;SDS011;48171;51.550;5.434;2023-06-14T10:49:01;7.13;;;2.88;;
61017;SDS011;48171;51.550;5.434;2023-06-14T10:51:29;7.80;;;3.10;;
61017;SDS011;48171;51.550;5.434;2023-06-14T10:53:55;5.13;;;2.85;;
61017;SDS011;48171;51.550;5.434;2023-06-14T11:01:20;5.22;;;2.72;;
61017;SDS011;48171;51.550;5.434;2023-06-14T11:03:54;6.10;;;2.60;;
61017;SDS011;48171;51.550;5.434;2023-06-14T11:06:22;6.75;;;2.85;;
61017;SDS011;48171;51.550;5.434;2023-06-14T11:11:36;4.85;;;2.85;;
61017;SDS011;48171;51.550;5.434;2023-06-14T11:14:03;4.65;;;2.78;;
61017;SDS011;48171;51.550;5.434;2023-06-14T11:16:29;6.57;;;2.92;;
61017;SDS011;48171;51.550;5.434;2023-06-14T11:18:57;6.63;;;2.90;;
61017;SDS011;48171;51.550;5.434;2023-06-14T11:21:23;5.68;;;3.20;;
61017;SDS011;48171;51.550;5.434;2023-06-14T11:23:53;6.30;;;2.90;;
61017;SDS011;48171;51.550;5.434;2023-06-14T11:26:26;6.03;;;2.63;;
61017;SDS011;48171;51.550;5.434;2023-06-14T11:28:56;5.05;;;2.80;;
61017;SDS011;48171;51.550;5.434;2023-06-14T11:31:23;4.40;;;2.30;;
61017;SDS011;48171;51.550;5.434;2023-06-14T11:33:49;6.47;;;2.80;;
61017;SDS011;48171;51.550;5.434;2023-06-14T11:36:15;5.63;;;2.60;;
61017;SDS011;48171;51.550;5.434;2023-06-14T11:38:41;4.70;;;2.50;;
61017;SDS011;48171;51.550;5.434;2023-06-14T11:41:06;9.02;;;3.03;;
61017;SDS011;48171;51.550;5.434;2023-06-14T11:43:31;4.72;;;2.60;;
61017;SDS011;48171;51.550;5.434;2023-06-14T11:45:58;6.13;;;2.47;;
61017;SDS011;48171;51.550;5.434;2023-06-14T11:51:32;8.05;;;2.60;;
61017;SDS011;48171;51.550;5.434;2023-06-14T11:54:00;6.97;;;2.72;;
61017;SDS011;48171;51.550;5.434;2023-06-14T11:56:27;4.72;;;2.30;;
61017;SDS011;48171;51.550;5.434;2023-06-14T11:58:53;4.70;;;2.53;;
61017;SDS011;48171;51.550;5.434;2023-06-14T12:01:21;9.38;;;2.78;;
61017;SDS011;48171;51.550;5.434;2023-06-14T12:03:47;5.70;;;2.53;;
61017;SDS011;48171;51.550;5.434;2023-06-14T12:06:13;7.38;;;2.70;;
61017;SDS011;48171;51.550;5.434;2023-06-14T12:08:39;5.28;;;2.22;;
61017;SDS011;48171;51.550;5.434;2023-06-14T12:11:10;5.80;;;2.60;;
61017;SDS011;48171;51.550;5.434;2023-06-14T12:13:40;5.72;;;2.70;;
61017;SDS011;48171;51.550;5.434;2023-06-14T12:18:35;4.63;;;2.38;;
61017;SDS011;48171;51.550;5.434;2023-06-14T12:21:03;7.30;;;2.67;;
61017;SDS011;48171;51.550;5.434;2023-06-14T12:23:39;7.40;;;2.70;;
61017;SDS011;48171;51.550;5.434;2023-06-14T12:26:12;5.32;;;2.70;;
61017;SDS011;48171;51.550;5.434;2023-06-14T12:28:41;4.75;;;2.47;;
61017;SDS011;48171;51.550;5.434;2023-06-14T12:31:11;5.50;;;2.78;;
61017;SDS011;48171;51.550;5.434;2023-06-14T12:33:38;5.03;;;2.35;;
61017;SDS011;48171;51.550;5.434;2023-06-14T12:36:04;4.75;;;2.60;;
61017;SDS011;48171;51.550;5.434;2023-06-14T12:38:31;5.57;;;2.83;;
61017;SDS011;48171;51.550;5.434;2023-06-14T12:41:03;6.40;;;2.95;;
61017;SDS011;48171;51.550;5.434;2023-06-14T12:43:28;4.38;;;2.50;;
61017;SDS011;48171;51.550;5.434;2023-06-14T12:45:54;5.88;;;2.65;;
61017;SDS011;48171;51.550;5.434;2023-06-14T12:48:19;3.88;;;2.40;;
61017;SDS011;48171;51.550;5.434;2023-06-14T12:50:45;5.38;;;2.45;;
61017;SDS011;48171;51.550;5.434;2023-06-14T12:53:10;4.82;;;2.38;;
61017;SDS011;48171;51.550;5.434;2023-06-14T12:55:35;4.97;;;2.50;;
61017;SDS011;48171;51.550;5.434;2023-06-14T12:58:01;5.70;;;2.42;;
61017;SDS011;48171;51.550;5.434;2023-06-14T13:00:26;4.97;;;2.38;;
61017;SDS011;48171;51.550;5.434;2023-06-14T13:02:52;6.13;;;2.40;;
61017;SDS011;48171;51.550;5.434;2023-06-14T13:05:18;4.38;;;2.30;;
61017;SDS011;48171;51.550;5.434;2023-06-14T13:07:43;4.78;;;2.45;;
61017;SDS011;48171;51.550;5.434;2023-06-14T13:10:09;4.85;;;2.38;;
61017;SDS011;48171;51.550;5.434;2023-06-14T13:12:35;5.82;;;2.53;;
61017;SDS011;48171;51.550;5.434;2023-06-14T13:15:00;3.72;;;2.25;;
61017;SDS011;48171;51.550;5.434;2023-06-14T13:17:26;3.28;;;1.98;;
61017;SDS011;48171;51.550;5.434;2023-06-14T13:19:51;6.70;;;2.30;;
61017;SDS011;48171;51.550;5.434;2023-06-14T13:22:16;5.63;;;2.33;;
61017;SDS011;48171;51.550;5.434;2023-06-14T13:24:42;7.63;;;2.53;;
61017;SDS011;48171;51.550;5.434;2023-06-14T13:27:07;6.53;;;2.40;;
61017;SDS011;48171;51.550;5.434;2023-06-14T13:29:33;3.78;;;2.22;;
61017;SDS011;48171;51.550;5.434;2023-06-14T13:32:00;4.88;;;2.60;;
61017;SDS011;48171;51.550;5.434;2023-06-14T13:34:26;5.25;;;2.42;;
61017;SDS011;48171;51.550;5.434;2023-06-14T13:36:51;5.07;;;2.65;;
61017;SDS011;48171;51.550;5.434;2023-06-14T13:39:16;9.45;;;2.60;;
61017;SDS011;48171;51.550;5.434;2023-06-14T13:41:42;6.82;;;2.42;;
61017;SDS011;48171;51.550;5.434;2023-06-14T13:44:07;4.07;;;2.65;;
61017;SDS011;48171;51.550;5.434;2023-06-14T13:46:33;6.18;;;2.53;;
61017;SDS011;48171;51.550;5.434;2023-06-14T13:48:58;4.05;;;2.15;;
61017;SDS011;48171;51.550;5.434;2023-06-14T13:51:25;4.90;;;2.30;;
61017;SDS011;48171;51.550;5.434;2023-06-14T13:53:52;3.70;;;2.28;;
61017;SDS011;48171;51.550;5.434;2023-06-14T13:56:18;5.75;;;2.30;;
61017;SDS011;48171;51.550;5.434;2023-06-14T13:58:43;5.38;;;2.47;;
61017;SDS011;48171;51.550;5.434;2023-06-14T14:01:09;4.15;;;2.25;;
61017;SDS011;48171;51.550;5.434;2023-06-14T14:03:36;4.50;;;2.38;;
61017;SDS011;48171;51.550;5.434;2023-06-14T14:06:01;4.80;;;2.45;;
61017;SDS011;48171;51.550;5.434;2023-06-14T14:08:28;5.32;;;2.25;;
61017;SDS011;48171;51.550;5.434;2023-06-14T14:10:53;9.95;;;2.53;;
61017;SDS011;48171;51.550;5.434;2023-06-14T14:13:19;5.35;;;2.33;;
61017;SDS011;48171;51.550;5.434;2023-06-14T14:15:45;3.15;;;2.10;;
61017;SDS011;48171;51.550;5.434;2023-06-14T14:18:11;5.15;;;2.17;;
61017;SDS011;48171;51.550;5.434;2023-06-14T14:20:36;3.45;;;2.00;;
61017;SDS011;48171;51.550;5.434;2023-06-14T14:23:01;3.63;;;2.05;;
61017;SDS011;48171;51.550;5.434;2023-06-14T14:25:27;6.85;;;2.22;;
61017;SDS011;48171;51.550;5.434;2023-06-14T14:27:52;3.70;;;1.98;;
61017;SDS011;48171;51.550;5.434;2023-06-14T14:30:18;4.03;;;2.10;;
61017;SDS011;48171;51.550;5.434;2023-06-14T14:32:46;2.80;;;1.90;;
61017;SDS011;48171;51.550;5.434;2023-06-14T14:35:13;5.22;;;1.98;;
61017;SDS011;48171;51.550;5.434;2023-06-14T14:37:38;5.57;;;1.90;;
61017;SDS011;48171;51.550;5.434;2023-06-14T14:40:04;3.78;;;2.10;;
61017;SDS011;48171;51.550;5.434;2023-06-14T14:42:30;5.13;;;1.70;;
61017;SDS011;48171;51.550;5.434;2023-06-14T14:44:55;3.67;;;1.85;;
61017;SDS011;48171;51.550;5.434;2023-06-14T14:47:20;4.63;;;1.92;;
61017;SDS011;48171;51.550;5.434;2023-06-14T14:49:46;4.60;;;1.75;;
61017;SDS011;48171;51.550;5.434;2023-06-14T14:52:11;3.28;;;1.77;;
61017;SDS011;48171;51.550;5.434;2023-06-14T14:54:38;4.82;;;1.80;;
61017;SDS011;48171;51.550;5.434;2023-06-14T14:57:04;3.63;;;1.85;;
61017;SDS011;48171;51.550;5.434;2023-06-14T14:59:30;3.40;;;1.70;;
61017;SDS011;48171;51.550;5.434;2023-06-14T15:01:55;4.20;;;1.85;;
61017;SDS011;48171;51.550;5.434;2023-06-14T15:04:20;4.63;;;1.95;;
61017;SDS011;48171;51.550;5.434;2023-06-14T15:06:46;4.13;;;1.98;;
61017;SDS011;48171;51.550;5.434;2023-06-14T15:09:11;5.30;;;1.90;;
61017;SDS011;48171;51.550;5.434;2023-06-14T15:11:36;3.65;;;1.70;;
61017;SDS011;48171;51.550;5.434;2023-06-14T15:14:01;4.70;;;1.80;;